createdAt,value
2018-03-30T00:00:36.463Z,99.90
2018-03-30T00:03:04.091Z,99.90
2018-03-30T00:05:30.979Z,99.90
2018-03-30T00:07:58.661Z,99.90
2018-03-30T00:10:25.559Z,99.90
2018-03-30T00:12:52.526Z,99.90
2018-03-30T00:15:20.136Z,99.90
2018-03-30T00:17:47.023Z,99.90
2018-03-30T00:20:14.764Z,99.90
2018-03-30T00:22:41.656Z,99.90
2018-03-30T00:25:08.591Z,99.90
2018-03-30T00:27:35.498Z,99.90
2018-03-30T00:30:02.489Z,99.90
2018-03-30T00:32:29.433Z,99.90
2018-03-30T00:34:56.495Z,99.90
2018-03-30T00:37:23.393Z,99.90
2018-03-30T00:39:50.429Z,99.90
2018-03-30T00:42:17.313Z,99.90
2018-03-30T00:44:44.262Z,99.90
2018-03-30T00:47:11.895Z,99.90
2018-03-30T00:49:38.826Z,99.90
2018-03-30T00:52:05.730Z,99.90
2018-03-30T00:54:32.701Z,99.90
2018-03-30T00:56:59.655Z,99.90
2018-03-30T00:59:26.529Z,99.90
2018-03-30T01:01:53.522Z,99.90
2018-03-30T01:04:20.562Z,99.90
2018-03-30T01:06:47.500Z,99.90
2018-03-30T01:09:14.443Z,99.90
2018-03-30T01:11:41.408Z,99.90
2018-03-30T01:14:08.314Z,99.90
2018-03-30T01:16:35.183Z,99.90
2018-03-30T01:19:02.123Z,99.90
2018-03-30T01:21:29.094Z,99.90
2018-03-30T01:23:56.029Z,99.90
2018-03-30T01:26:23.086Z,99.90
2018-03-30T01:28:50.026Z,99.90
2018-03-30T01:31:16.980Z,99.90
2018-03-30T01:33:43.877Z,99.90
2018-03-30T01:36:10.893Z,99.90
2018-03-30T01:38:37.761Z,99.90
2018-03-30T01:41:04.725Z,99.90
2018-03-30T01:43:31.596Z,99.90
2018-03-30T01:45:58.471Z,99.90
2018-03-30T01:48:25.441Z,99.90
2018-03-30T01:50:52.327Z,99.90
2018-03-30T01:53:19.277Z,99.90
2018-03-30T01:55:46.894Z,99.90
2018-03-30T01:58:13.871Z,99.90
2018-03-30T02:00:40.848Z,99.90
2018-03-30T02:03:07.734Z,99.90
2018-03-30T02:05:34.676Z,99.90
2018-03-30T02:08:01.605Z,99.90
2018-03-30T02:10:29.340Z,99.90
2018-03-30T02:12:56.233Z,99.90
2018-03-30T02:15:23.161Z,99.90
2018-03-30T02:17:50.047Z,99.90
2018-03-30T02:20:16.989Z,99.90
2018-03-30T02:22:43.919Z,99.90
2018-03-30T02:25:10.858Z,99.90
2018-03-30T02:27:37.719Z,99.90
2018-03-30T02:30:04.666Z,99.90
2018-03-30T02:32:31.540Z,99.90
2018-03-30T02:34:58.529Z,99.90
2018-03-30T02:37:25.464Z,99.90
2018-03-30T02:39:52.413Z,99.90
2018-03-30T02:42:19.293Z,99.90
2018-03-30T02:44:46.172Z,99.90
2018-03-30T02:47:13.138Z,99.90
2018-03-30T02:49:40.038Z,99.90
2018-03-30T02:52:07.732Z,99.90
2018-03-30T02:54:34.612Z,99.90
2018-03-30T02:57:02.341Z,99.90
2018-03-30T02:59:29.216Z,99.90
2018-03-30T03:01:56.156Z,99.90
2018-03-30T03:04:23.043Z,99.90
2018-03-30T03:06:50.010Z,99.90
2018-03-30T03:09:17.620Z,99.90
2018-03-30T03:11:44.499Z,99.90
2018-03-30T03:14:11.446Z,99.90
2018-03-30T03:16:38.324Z,99.90
2018-03-30T03:19:05.199Z,99.90
2018-03-30T03:21:32.148Z,99.90
2018-03-30T03:23:59.096Z,99.90
2018-03-30T03:26:26.037Z,99.90
2018-03-30T03:28:52.992Z,99.90
2018-03-30T03:31:19.928Z,99.90
2018-03-30T03:33:46.931Z,99.90
2018-03-30T03:36:13.859Z,99.90
2018-03-30T03:38:40.796Z,99.90
2018-03-30T03:41:07.796Z,99.90
2018-03-30T03:43:34.721Z,99.90
2018-03-30T03:46:01.580Z,99.90
2018-03-30T03:48:28.507Z,99.90
2018-03-30T03:50:56.178Z,99.90
2018-03-30T03:53:23.799Z,99.90
2018-03-30T03:55:50.792Z,99.90
2018-03-30T03:58:17.654Z,99.90
2018-03-30T04:00:44.588Z,99.90
2018-03-30T04:03:11.556Z,99.90
2018-03-30T04:05:38.507Z,99.90
2018-03-30T04:08:05.404Z,99.90
2018-03-30T04:10:33.074Z,99.90
2018-03-30T04:13:00.798Z,99.90
2018-03-30T04:15:27.675Z,99.90
2018-03-30T04:17:55.292Z,99.90
2018-03-30T04:20:22.236Z,99.90
2018-03-30T04:22:49.120Z,99.90
2018-03-30T04:25:16.108Z,99.90
2018-03-30T04:27:53.691Z,99.90
2018-03-30T04:30:20.775Z,99.90
2018-03-30T04:32:47.636Z,99.90
2018-03-30T04:35:14.587Z,99.90
2018-03-30T04:37:41.531Z,99.90
2018-03-30T04:40:08.438Z,99.90
2018-03-30T04:42:35.387Z,99.90
2018-03-30T04:45:02.252Z,99.90
2018-03-30T04:47:29.188Z,99.90
2018-03-30T04:49:56.172Z,99.90
2018-03-30T04:52:23.096Z,99.90
2018-03-30T04:54:50.039Z,99.90
2018-03-30T04:57:16.935Z,99.90
2018-03-30T04:59:44.637Z,99.90
2018-03-30T05:02:11.518Z,99.90
2018-03-30T05:04:38.404Z,99.90
2018-03-30T05:07:05.367Z,99.90
2018-03-30T05:09:32.300Z,99.90
2018-03-30T05:11:59.188Z,99.90
2018-03-30T05:14:26.198Z,99.90
2018-03-30T05:16:53.096Z,99.90
2018-03-30T05:19:20.140Z,99.90
2018-03-30T05:21:47.017Z,99.90
2018-03-30T05:24:14.669Z,99.90
2018-03-30T05:26:42.357Z,99.90
2018-03-30T05:29:09.223Z,99.90
2018-03-30T05:31:36.200Z,99.90
2018-03-30T05:34:03.178Z,99.90
2018-03-30T05:36:30.845Z,99.90
2018-03-30T05:38:58.486Z,99.90
2018-03-30T05:41:25.459Z,99.90
2018-03-30T05:43:52.421Z,99.90
2018-03-30T05:46:19.395Z,99.90
2018-03-30T05:48:46.432Z,99.90
2018-03-30T05:51:13.304Z,99.90
2018-03-30T05:53:40.181Z,99.90
2018-03-30T05:56:07.189Z,99.90
2018-03-30T05:58:34.134Z,99.90
2018-03-30T06:01:01.099Z,99.90
2018-03-30T06:03:28.181Z,99.90
2018-03-30T06:05:55.058Z,99.90
2018-03-30T06:08:21.918Z,99.90
2018-03-30T06:10:48.883Z,99.90
2018-03-30T06:13:15.800Z,99.90
2018-03-30T06:15:42.752Z,99.90
2018-03-30T06:18:09.699Z,99.90
2018-03-30T06:20:36.588Z,99.90
2018-03-30T06:23:04.319Z,99.90
2018-03-30T06:25:31.273Z,99.90
2018-03-30T06:27:58.236Z,99.90
2018-03-30T06:30:25.209Z,99.90
2018-03-30T06:32:57.232Z,99.90
2018-03-30T06:35:24.596Z,99.90
2018-03-30T06:37:51.604Z,99.90
2018-03-30T06:40:18.583Z,99.90
2018-03-30T06:42:56.719Z,99.90
2018-03-30T06:45:24.560Z,99.90
2018-03-30T06:47:51.454Z,99.90
2018-03-30T06:50:18.464Z,99.90
2018-03-30T06:52:45.385Z,99.90
2018-03-30T06:55:12.436Z,99.90
2018-03-30T06:57:39.530Z,99.90
2018-03-30T07:00:06.417Z,99.90
2018-03-30T07:02:33.383Z,99.90
2018-03-30T07:07:20.657Z,99.90
2018-03-30T07:09:52.800Z,99.90
2018-03-30T07:12:24.028Z,99.90
2018-03-30T07:14:52.121Z,99.90
2018-03-30T07:17:19.063Z,99.90
2018-03-30T07:19:50.028Z,99.90
2018-03-30T07:22:18.296Z,99.90
2018-03-30T07:24:50.060Z,99.90
2018-03-30T07:27:22.655Z,99.90
2018-03-30T07:29:54.757Z,99.90
2018-03-30T07:32:21.710Z,99.90
2018-03-30T07:34:56.798Z,99.90
2018-03-30T07:37:25.083Z,99.90
2018-03-30T07:39:53.050Z,99.90
2018-03-30T07:42:23.239Z,99.90
2018-03-30T07:44:50.248Z,98.80
2018-03-30T07:47:17.197Z,97.70
2018-03-30T07:49:44.076Z,95.90
2018-03-30T07:52:11.016Z,94.00
2018-03-30T07:54:37.892Z,93.60
2018-03-30T07:57:05.648Z,90.60
2018-03-30T07:59:33.375Z,86.10
2018-03-30T08:02:00.316Z,85.90
2018-03-30T08:04:27.192Z,81.20
2018-03-30T08:06:54.138Z,78.00
2018-03-30T08:09:21.092Z,73.70
2018-03-30T08:11:47.988Z,75.80
2018-03-30T08:14:14.923Z,65.80
2018-03-30T08:16:41.828Z,62.80
2018-03-30T08:19:08.767Z,59.00
2018-03-30T08:21:35.642Z,54.20
2018-03-30T08:24:03.271Z,50.80
2018-03-30T08:26:30.195Z,50.70
2018-03-30T08:28:57.076Z,48.40
2018-03-30T08:31:24.755Z,49.40
2018-03-30T08:33:52.367Z,51.10
2018-03-30T08:36:19.525Z,51.10
2018-03-30T08:38:46.476Z,50.40
2018-03-30T08:41:13.342Z,54.40
2018-03-30T08:43:40.355Z,52.20
2018-03-30T08:46:07.255Z,55.20
2018-03-30T08:48:35.184Z,48.80
2018-03-30T08:51:02.786Z,48.80
2018-03-30T08:53:30.471Z,48.50
2018-03-30T08:55:57.428Z,45.50
2018-03-30T08:58:24.320Z,46.30
2018-03-30T09:00:52.570Z,44.70
2018-03-30T09:03:19.976Z,48.80
2018-03-30T09:05:46.930Z,50.40
2018-03-30T09:08:13.802Z,49.90
2018-03-30T09:10:40.784Z,50.70
2018-03-30T09:13:07.657Z,50.70
2018-03-30T09:15:34.540Z,53.10
2018-03-30T09:18:01.482Z,52.00
2018-03-30T09:20:28.409Z,51.90
2018-03-30T09:22:55.364Z,50.20
2018-03-30T09:25:22.252Z,53.30
2018-03-30T09:27:49.213Z,52.60
2018-03-30T09:30:17.814Z,54.50
2018-03-30T09:32:44.769Z,54.40
2018-03-30T09:35:11.815Z,53.00
2018-03-30T09:37:38.840Z,52.70
2018-03-30T09:40:07.566Z,52.30
2018-03-30T09:42:34.754Z,52.20
2018-03-30T09:45:01.879Z,51.90
2018-03-30T09:47:34.816Z,54.40
2018-03-30T09:50:01.779Z,52.70
2018-03-30T09:52:29.466Z,54.50
2018-03-30T09:54:59.134Z,54.40
2018-03-30T09:57:26.819Z,55.70
2018-03-30T09:59:54.464Z,57.70
2018-03-30T10:02:34.536Z,57.70
2018-03-30T10:05:01.494Z,55.30
2018-03-30T10:07:31.646Z,59.40
2018-03-30T10:09:59.799Z,59.60
2018-03-30T10:12:28.467Z,58.50
2018-03-30T10:14:56.165Z,58.50
2018-03-30T10:17:24.999Z,58.50
2018-03-30T10:19:54.641Z,63.00
2018-03-30T10:22:21.688Z,63.00
2018-03-30T10:24:48.575Z,63.70
2018-03-30T10:27:25.006Z,62.90
2018-03-30T10:29:53.153Z,64.50
2018-03-30T10:32:20.911Z,65.50
2018-03-30T10:34:52.509Z,65.50
2018-03-30T10:37:19.457Z,65.70
2018-03-30T10:39:48.762Z,66.00
2018-03-30T10:42:15.759Z,68.60
2018-03-30T10:44:44.375Z,69.90
2018-03-30T10:47:22.094Z,68.70
2018-03-30T10:49:51.364Z,70.50
2018-03-30T10:52:18.315Z,74.30
2018-03-30T10:54:46.993Z,68.30
2018-03-30T10:57:27.941Z,68.00
2018-03-30T11:00:02.059Z,70.30
2018-03-30T11:02:29.304Z,70.30
2018-03-30T11:04:56.188Z,73.70
2018-03-30T11:07:23.797Z,73.90
2018-03-30T11:09:50.743Z,73.90
2018-03-30T11:12:20.896Z,69.10
2018-03-30T11:14:56.262Z,69.50
2018-03-30T11:17:34.371Z,69.30
2018-03-30T11:20:09.681Z,70.30
2018-03-30T11:22:39.930Z,71.40
2018-03-30T11:25:07.546Z,70.70
2018-03-30T11:27:39.557Z,70.80
2018-03-30T11:30:16.952Z,68.90
2018-03-30T11:32:54.165Z,68.90
2018-03-30T11:35:22.657Z,68.00
2018-03-30T11:37:50.264Z,67.90
2018-03-30T11:40:23.814Z,68.60
2018-03-30T11:42:53.494Z,69.50
2018-03-30T11:45:32.551Z,69.10
2018-03-30T11:48:00.872Z,66.70
2018-03-30T11:50:29.914Z,68.00
2018-03-30T11:52:58.099Z,69.40
2018-03-30T11:55:25.647Z,69.30
2018-03-30T11:57:53.621Z,68.90
2018-03-30T12:00:21.071Z,68.90
2018-03-30T12:02:48.028Z,71.30
2018-03-30T12:05:23.175Z,71.30
2018-03-30T12:07:52.961Z,73.50
2018-03-30T12:10:23.741Z,75.10
2018-03-30T12:12:52.564Z,74.80
2018-03-30T12:15:19.468Z,75.70
2018-03-30T12:17:47.920Z,75.10
2018-03-30T12:20:14.792Z,76.30
2018-03-30T12:22:48.834Z,75.90
2018-03-30T12:25:15.698Z,76.10
2018-03-30T12:27:43.512Z,78.30
2018-03-30T12:30:10.547Z,81.90
2018-03-30T12:32:39.763Z,79.10
2018-03-30T12:35:06.795Z,80.30
2018-03-30T12:37:33.764Z,81.70
2018-03-30T12:53:14.377Z,81.40
2018-03-30T12:55:48.429Z,82.80
2018-03-30T12:58:19.241Z,81.20
2018-03-30T13:00:50.706Z,81.60
2018-03-30T13:03:21.930Z,81.70
2018-03-30T13:05:53.607Z,80.60
2018-03-30T13:08:20.551Z,82.90
2018-03-30T13:10:47.483Z,87.30
2018-03-30T13:13:15.169Z,86.20
2018-03-30T13:15:42.124Z,86.30
2018-03-30T13:18:08.982Z,84.30
2018-03-30T13:20:36.036Z,83.80
2018-03-30T13:23:02.925Z,83.70
2018-03-30T13:25:30.549Z,83.40
2018-03-30T13:27:57.578Z,83.40
2018-03-30T13:30:24.588Z,85.70
2018-03-30T13:32:58.782Z,84.90
2018-03-30T13:35:26.510Z,85.50
2018-03-30T13:37:59.883Z,85.70
2018-03-30T13:43:18.937Z,86.70
2018-03-30T13:45:57.306Z,87.80
2018-03-30T13:48:27.620Z,86.80
2018-03-30T13:50:58.571Z,85.70
2018-03-30T13:53:40.349Z,88.10
2018-03-30T13:56:10.517Z,88.00
2018-03-30T13:58:51.147Z,86.70
2018-03-30T14:01:30.778Z,86.80
2018-03-30T14:04:19.634Z,87.20
2018-03-30T14:07:03.618Z,85.20
2018-03-30T14:09:49.796Z,85.10
2018-03-30T14:12:20.432Z,85.80
2018-03-30T14:14:51.499Z,85.80
2018-03-30T14:17:28.558Z,85.70
2018-03-30T14:20:26.603Z,85.40
2018-03-30T14:23:11.152Z,85.10
2018-03-30T14:25:54.695Z,85.20
2018-03-30T14:31:36.827Z,84.00
2018-03-30T14:34:23.552Z,83.30
2018-03-30T14:37:14.081Z,83.20
2018-03-30T14:42:49.189Z,83.30
2018-03-30T14:45:40.566Z,85.00
2018-03-30T14:48:28.858Z,84.40
2018-03-30T14:51:09.188Z,85.50
2018-03-30T14:53:41.389Z,87.20
2018-03-30T14:56:23.299Z,86.00
2018-03-30T14:58:53.357Z,86.60
2018-03-30T15:01:22.369Z,84.00
2018-03-30T15:03:52.307Z,84.90
2018-03-30T15:06:40.190Z,85.80
2018-03-30T15:09:22.929Z,87.40
2018-03-30T15:11:51.917Z,88.10
2018-03-30T15:14:20.894Z,86.00
2018-03-30T15:17:04.711Z,86.20
2018-03-30T15:19:52.129Z,85.10
2018-03-30T15:22:34.507Z,86.20
2018-03-30T15:25:33.117Z,85.80
2018-03-30T15:28:00.163Z,85.30
2018-03-30T15:30:31.843Z,84.50
2018-03-30T15:33:21.604Z,85.80
2018-03-30T15:35:48.601Z,82.40
2018-03-30T15:38:15.658Z,84.30
2018-03-30T15:40:42.775Z,85.30
2018-03-30T15:43:13.707Z,86.70
2018-03-30T15:45:51.967Z,85.80
2018-03-30T15:48:22.527Z,86.60
2018-03-30T15:50:57.054Z,85.70
2018-03-30T15:53:26.354Z,86.40
2018-03-30T15:55:57.134Z,86.30
2018-03-30T15:58:29.749Z,86.50
2018-03-30T16:01:00.898Z,86.50
2018-03-30T16:03:38.124Z,88.30
2018-03-30T16:06:18.239Z,87.90
2018-03-30T16:08:51.221Z,85.90
2018-03-30T16:11:24.057Z,89.60
2018-03-30T16:13:51.258Z,86.50
2018-03-30T16:16:20.476Z,90.00
2018-03-30T16:18:56.949Z,90.00
2018-03-30T16:21:27.753Z,88.70
2018-03-30T16:23:54.937Z,89.80
2018-03-30T16:26:21.536Z,90.80
2018-03-30T16:28:48.933Z,90.90
2018-03-30T16:31:16.200Z,89.20
2018-03-30T16:33:42.708Z,90.20
2018-03-30T16:36:11.192Z,88.90
2018-03-30T16:38:48.943Z,89.60
2018-03-30T16:41:16.504Z,90.80
2018-03-30T16:43:44.829Z,91.20
2018-03-30T16:46:11.605Z,91.90
2018-03-30T16:48:38.199Z,93.40
2018-03-30T16:51:09.780Z,90.70
2018-03-30T16:53:36.381Z,91.50
2018-03-30T16:56:04.770Z,91.50
2018-03-30T16:58:32.444Z,91.30
2018-03-30T17:00:59.015Z,91.00
2018-03-30T17:03:25.617Z,93.30
2018-03-30T17:05:52.216Z,94.20
2018-03-30T17:08:18.745Z,93.50
2018-03-30T17:10:45.321Z,92.90
2018-03-30T17:13:11.887Z,92.60
2018-03-30T17:15:38.485Z,91.80
2018-03-30T17:18:05.097Z,93.40
2018-03-30T17:20:31.633Z,93.40
2018-03-30T17:22:58.243Z,95.30
2018-03-30T17:25:24.763Z,94.30
2018-03-30T17:27:52.083Z,95.20
2018-03-30T17:30:18.642Z,95.00
2018-03-30T17:32:45.331Z,95.10
2018-03-30T17:35:11.923Z,95.60
2018-03-30T17:37:38.492Z,96.00
2018-03-30T17:40:05.061Z,95.50
2018-03-30T17:42:31.664Z,96.10
2018-03-30T17:44:58.195Z,96.00
2018-03-30T17:47:24.792Z,96.00
2018-03-30T17:49:51.340Z,96.60
2018-03-30T17:52:17.930Z,95.50
2018-03-30T17:54:44.535Z,97.40
2018-03-30T17:57:11.057Z,98.40
2018-03-30T17:59:37.581Z,98.60
2018-03-30T18:02:04.171Z,98.70
2018-03-30T18:04:30.691Z,99.90
2018-03-30T18:06:58.023Z,99.90
2018-03-30T18:09:25.019Z,99.90
2018-03-30T18:11:51.621Z,99.90
2018-03-30T18:14:18.139Z,99.90
2018-03-30T18:16:44.727Z,99.90
2018-03-30T18:19:11.277Z,99.90
2018-03-30T18:21:37.832Z,99.90
2018-03-30T18:24:04.433Z,99.90
2018-03-30T18:26:30.961Z,99.90
2018-03-30T18:28:58.058Z,99.90
2018-03-30T18:31:24.599Z,99.90
2018-03-30T18:33:51.229Z,99.90
2018-03-30T18:36:17.770Z,99.90
2018-03-30T18:38:44.420Z,99.90
2018-03-30T18:41:11.004Z,99.90
2018-03-30T18:43:37.592Z,99.90
2018-03-30T18:46:04.183Z,99.90
2018-03-30T18:48:30.774Z,99.90
2018-03-30T18:50:57.300Z,99.90
2018-03-30T18:53:23.886Z,99.90
2018-03-30T18:55:50.426Z,99.90
2018-03-30T18:58:17.368Z,99.90
2018-03-30T19:00:44.677Z,99.90
2018-03-30T19:03:11.377Z,99.90
2018-03-30T19:05:37.910Z,99.90
2018-03-30T19:08:04.974Z,99.90
2018-03-30T19:10:31.551Z,99.90
2018-03-30T19:12:59.208Z,99.90
2018-03-30T19:15:25.721Z,99.90
2018-03-30T19:17:52.243Z,99.90
2018-03-30T19:20:18.864Z,99.90
2018-03-30T19:22:45.453Z,99.90
2018-03-30T19:25:12.114Z,99.90
2018-03-30T19:27:39.500Z,99.90
2018-03-30T19:30:06.036Z,99.90
2018-03-30T19:32:33.332Z,99.90
2018-03-30T19:34:59.866Z,99.90
2018-03-30T19:37:26.408Z,99.90
2018-03-30T19:39:53.078Z,99.90
2018-03-30T19:42:19.709Z,99.90
2018-03-30T19:44:46.241Z,99.90
2018-03-30T19:47:12.766Z,99.90
2018-03-30T19:49:40.189Z,99.90
2018-03-30T19:52:06.804Z,99.90
2018-03-30T19:54:34.063Z,99.90
2018-03-30T19:57:01.869Z,99.90
2018-03-30T19:59:28.463Z,99.90
2018-03-30T20:01:55.061Z,99.90
2018-03-30T20:04:21.702Z,99.90
2018-03-30T20:06:48.256Z,99.90
2018-03-30T20:09:14.908Z,99.90
2018-03-30T20:11:41.518Z,99.90
2018-03-30T20:14:08.060Z,99.90
2018-03-30T20:16:34.668Z,99.90
2018-03-30T20:19:01.214Z,99.90
2018-03-30T20:21:27.738Z,99.90
2018-03-30T20:23:54.403Z,99.90
2018-03-30T20:26:20.985Z,99.90
2018-03-30T20:28:47.567Z,99.90
2018-03-30T20:31:14.080Z,99.90
2018-03-30T20:33:41.001Z,99.90
2018-03-30T20:36:07.535Z,99.90
2018-03-30T20:38:35.129Z,99.90
2018-03-30T20:41:01.787Z,99.90
2018-03-30T20:43:28.432Z,99.90
2018-03-30T20:45:55.230Z,99.90
2018-03-30T20:48:21.850Z,99.90
2018-03-30T20:50:50.223Z,99.90
2018-03-30T20:53:17.493Z,99.90
2018-03-30T20:55:44.028Z,99.90
2018-03-30T20:58:10.694Z,99.90
2018-03-30T21:00:37.231Z,99.90
2018-03-30T21:03:03.850Z,99.90
2018-03-30T21:05:30.448Z,99.90
2018-03-30T21:07:56.961Z,99.90
2018-03-30T21:10:23.520Z,99.90
2018-03-30T21:12:50.117Z,99.90
2018-03-30T21:15:16.858Z,99.90
2018-03-30T21:17:43.434Z,99.90
2018-03-30T21:20:09.959Z,99.90
2018-03-30T21:22:36.555Z,99.90
2018-03-30T21:25:03.085Z,99.90
2018-03-30T21:27:29.704Z,99.90
2018-03-30T21:29:56.264Z,99.90
2018-03-30T21:32:22.871Z,99.90
2018-03-30T21:34:50.392Z,99.90
2018-03-30T21:37:16.995Z,99.90
2018-03-30T21:39:44.251Z,99.90
2018-03-30T21:42:11.568Z,99.90
2018-03-30T21:44:38.156Z,99.90
2018-03-30T21:47:04.713Z,99.90
2018-03-30T21:49:31.417Z,99.90
2018-03-30T21:51:57.944Z,99.90
2018-03-30T22:08:14.235Z,99.90
2018-03-30T22:10:40.761Z,99.90
2018-03-30T22:13:07.356Z,99.90
2018-03-30T22:15:33.944Z,99.90
2018-03-30T22:18:00.520Z,99.90
2018-03-30T22:20:27.472Z,99.90
2018-03-30T22:22:54.081Z,99.90
2018-03-30T22:25:29.952Z,99.90
2018-03-30T22:28:04.777Z,99.90
2018-03-30T22:30:39.385Z,99.90
2018-03-30T22:33:13.117Z,99.90
2018-03-30T22:35:49.131Z,99.90
2018-03-30T22:38:18.651Z,99.90
2018-03-30T22:40:45.259Z,99.90
2018-03-30T22:43:11.875Z,99.90
2018-03-30T22:45:44.351Z,99.90
2018-03-30T22:48:12.019Z,99.90
2018-03-30T22:50:38.727Z,99.90
2018-03-30T22:53:13.151Z,99.90
2018-03-30T22:55:40.261Z,99.90
2018-03-30T22:58:06.848Z,99.90
2018-03-30T23:00:40.291Z,99.90
2018-03-30T23:03:15.392Z,99.90
2018-03-30T23:05:52.049Z,99.90
2018-03-30T23:08:25.660Z,99.90
2018-03-30T23:11:00.788Z,99.90
2018-03-30T23:13:34.173Z,99.90
2018-03-30T23:16:05.156Z,99.90
2018-03-30T23:18:40.572Z,99.90
2018-03-30T23:21:15.752Z,99.90
2018-03-30T23:23:52.059Z,99.90
2018-03-30T23:26:19.356Z,99.90
2018-03-30T23:28:53.933Z,99.90
2018-03-30T23:31:30.533Z,99.90
2018-03-30T23:34:04.128Z,99.90
2018-03-30T23:36:31.488Z,99.90
2018-03-30T23:38:59.544Z,99.90
2018-03-30T23:41:34.357Z,99.90
2018-03-30T23:44:10.317Z,99.90
2018-03-30T23:46:44.126Z,99.90
2018-03-30T23:49:20.344Z,99.90
2018-03-30T23:51:56.240Z,99.90
2018-03-30T23:54:24.865Z,99.90
2018-03-30T23:56:52.172Z,99.90
2018-03-30T23:59:18.739Z,99.90
